Terminal Aerodrome Forecast
Issued by NWS

Home | Current Version | Previous Version | Graphics & Text | Print | Product List | Glossary On
Versions: 1 2 3 4 5 6 7 8 9 10 11 12 13 14 15 16 17 18 19 20 21 22
000
FTUS43 KICT 242023 AAB
TAFCNU
TAF AMD
KCNU 242023Z 2420/2518 15008KT P6SM -RA SCT014 OVC100
      TEMPO 2420/2424 BKN014
     FM250300 15008KT 3SM BR BKN005
     FM251500 17010KT P6SM BKN010=

USA.gov is the U.S. government's official web portal to all federal, state and local government web resources and services.